Aviation Digital Data Service (ADDS)

Output produced by METARs form (0516 UTC 25 May 2018)
found at http://www.aviationweather.gov/adds/metars/
 
GQPP 250500Z 02017KT 7000 NSC 18/14 Q1014 NOSIG
TAF GQPP 242300Z 2500/2524 36015KT 7000 NSC 
     PROB30 
     TEMPO 2505/2509 BKN006